sensor_id;sensor_type;location;lat;lon;timestamp;P1;durP1;ratioP1;P2;durP2;ratioP2
73816;SDS011;62146;53.232;-1.304;2023-02-13T00:01:52;13.13;;;7.82;;
73816;SDS011;62146;53.232;-1.304;2023-02-13T00:04:19;11.18;;;6.53;;
73816;SDS011;62146;53.232;-1.304;2023-02-13T00:06:46;11.18;;;6.82;;
73816;SDS011;62146;53.232;-1.304;2023-02-13T00:09:15;10.83;;;6.70;;
73816;SDS011;62146;53.232;-1.304;2023-02-13T00:11:42;11.30;;;6.38;;
73816;SDS011;62146;53.232;-1.304;2023-02-13T00:14:08;10.85;;;6.68;;
73816;SDS011;62146;53.232;-1.304;2023-02-13T00:16:35;10.35;;;6.32;;
73816;SDS011;62146;53.232;-1.304;2023-02-13T00:19:02;11.30;;;6.72;;
73816;SDS011;62146;53.232;-1.304;2023-02-13T00:21:28;11.03;;;6.80;;
73816;SDS011;62146;53.232;-1.304;2023-02-13T00:23:55;10.68;;;6.25;;
73816;SDS011;62146;53.232;-1.304;2023-02-13T00:26:21;12.38;;;6.80;;
73816;SDS011;62146;53.232;-1.304;2023-02-13T00:28:48;12.38;;;6.45;;
73816;SDS011;62146;53.232;-1.304;2023-02-13T00:31:16;9.30;;;5.93;;
73816;SDS011;62146;53.232;-1.304;2023-02-13T00:33:44;10.33;;;6.13;;
73816;SDS011;62146;53.232;-1.304;2023-02-13T00:36:13;11.15;;;6.53;;
73816;SDS011;62146;53.232;-1.304;2023-02-13T00:38:41;10.55;;;6.40;;
73816;SDS011;62146;53.232;-1.304;2023-02-13T00:41:09;12.60;;;6.82;;
73816;SDS011;62146;53.232;-1.304;2023-02-13T00:43:36;9.95;;;6.18;;
73816;SDS011;62146;53.232;-1.304;2023-02-13T00:46:03;11.10;;;6.57;;
73816;SDS011;62146;53.232;-1.304;2023-02-13T00:48:32;12.60;;;6.57;;
73816;SDS011;62146;53.232;-1.304;2023-02-13T00:50:59;12.23;;;7.30;;
73816;SDS011;62146;53.232;-1.304;2023-02-13T00:53:27;12.23;;;6.28;;
73816;SDS011;62146;53.232;-1.304;2023-02-13T00:55:53;11.32;;;7.22;;
73816;SDS011;62146;53.232;-1.304;2023-02-13T00:58:20;10.50;;;6.33;;
73816;SDS011;62146;53.232;-1.304;2023-02-13T01:00:47;12.10;;;7.05;;
73816;SDS011;62146;53.232;-1.304;2023-02-13T01:03:14;11.95;;;7.20;;
73816;SDS011;62146;53.232;-1.304;2023-02-13T01:05:42;11.82;;;7.13;;
73816;SDS011;62146;53.232;-1.304;2023-02-13T01:08:10;12.43;;;7.20;;
73816;SDS011;62146;53.232;-1.304;2023-02-13T01:10:38;12.70;;;7.57;;
73816;SDS011;62146;53.232;-1.304;2023-02-13T01:13:05;12.13;;;7.00;;
73816;SDS011;62146;53.232;-1.304;2023-02-13T01:15:33;11.48;;;6.95;;
73816;SDS011;62146;53.232;-1.304;2023-02-13T01:18:00;13.00;;;7.50;;
73816;SDS011;62146;53.232;-1.304;2023-02-13T01:20:27;13.02;;;7.65;;
73816;SDS011;62146;53.232;-1.304;2023-02-13T01:22:55;13.17;;;8.50;;
73816;SDS011;62146;53.232;-1.304;2023-02-13T01:25:22;15.10;;;8.20;;
73816;SDS011;62146;53.232;-1.304;2023-02-13T01:27:49;13.68;;;8.23;;
73816;SDS011;62146;53.232;-1.304;2023-02-13T01:30:16;13.13;;;8.07;;
73816;SDS011;62146;53.232;-1.304;2023-02-13T01:32:44;14.43;;;8.50;;
73816;SDS011;62146;53.232;-1.304;2023-02-13T01:35:12;12.87;;;8.17;;
73816;SDS011;62146;53.232;-1.304;2023-02-13T01:37:39;14.75;;;8.65;;
73816;SDS011;62146;53.232;-1.304;2023-02-13T01:40:09;15.85;;;9.45;;
73816;SDS011;62146;53.232;-1.304;2023-02-13T01:42:37;13.95;;;8.20;;
73816;SDS011;62146;53.232;-1.304;2023-02-13T01:45:05;13.63;;;8.13;;
73816;SDS011;62146;53.232;-1.304;2023-02-13T01:47:48;15.40;;;8.77;;
73816;SDS011;62146;53.232;-1.304;2023-02-13T01:50:26;14.38;;;8.68;;
73816;SDS011;62146;53.232;-1.304;2023-02-13T01:55:57;15.27;;;8.95;;
73816;SDS011;62146;53.232;-1.304;2023-02-13T01:58:29;15.73;;;9.85;;
73816;SDS011;62146;53.232;-1.304;2023-02-13T02:00:59;15.37;;;8.90;;
73816;SDS011;62146;53.232;-1.304;2023-02-13T02:03:29;16.85;;;9.55;;
73816;SDS011;62146;53.232;-1.304;2023-02-13T02:05:59;15.20;;;9.38;;
73816;SDS011;62146;53.232;-1.304;2023-02-13T02:08:27;14.70;;;9.13;;
73816;SDS011;62146;53.232;-1.304;2023-02-13T02:10:57;16.65;;;9.60;;
73816;SDS011;62146;53.232;-1.304;2023-02-13T02:13:28;16.50;;;10.20;;
73816;SDS011;62146;53.232;-1.304;2023-02-13T02:15:54;17.15;;;10.18;;
73816;SDS011;62146;53.232;-1.304;2023-02-13T02:18:22;15.95;;;10.18;;
73816;SDS011;62146;53.232;-1.304;2023-02-13T02:53:48;18.27;;;10.57;;
73816;SDS011;62146;53.232;-1.304;2023-02-13T02:56:36;17.98;;;10.32;;
73816;SDS011;62146;53.232;-1.304;2023-02-13T02:59:09;16.38;;;10.25;;
73816;SDS011;62146;53.232;-1.304;2023-02-13T03:01:57;15.88;;;9.77;;
73816;SDS011;62146;53.232;-1.304;2023-02-13T03:04:45;16.42;;;9.70;;
73816;SDS011;62146;53.232;-1.304;2023-02-13T03:07:34;17.17;;;9.90;;
73816;SDS011;62146;53.232;-1.304;2023-02-13T03:10:08;16.60;;;9.68;;
73816;SDS011;62146;53.232;-1.304;2023-02-13T03:13:06;14.70;;;9.45;;
73816;SDS011;62146;53.232;-1.304;2023-02-13T03:15:52;16.42;;;9.02;;
73816;SDS011;62146;53.232;-1.304;2023-02-13T03:18:42;15.35;;;9.18;;
73816;SDS011;62146;53.232;-1.304;2023-02-13T03:30:38;13.60;;;8.00;;
73816;SDS011;62146;53.232;-1.304;2023-02-13T03:39:11;11.63;;;6.55;;
73816;SDS011;62146;53.232;-1.304;2023-02-13T03:42:00;11.88;;;7.22;;
73816;SDS011;62146;53.232;-1.304;2023-02-13T03:44:32;10.40;;;6.40;;
73816;SDS011;62146;53.232;-1.304;2023-02-13T03:47:04;10.85;;;6.45;;
73816;SDS011;62146;53.232;-1.304;2023-02-13T03:49:41;10.00;;;5.90;;
73816;SDS011;62146;53.232;-1.304;2023-02-13T03:54:57;10.43;;;6.03;;
73816;SDS011;62146;53.232;-1.304;2023-02-13T03:57:48;9.95;;;5.97;;
73816;SDS011;62146;53.232;-1.304;2023-02-13T04:00:38;9.73;;;5.97;;
73816;SDS011;62146;53.232;-1.304;2023-02-13T04:03:57;9.57;;;5.70;;
73816;SDS011;62146;53.232;-1.304;2023-02-13T04:06:03;9.55;;;5.50;;
73816;SDS011;62146;53.232;-1.304;2023-02-13T04:08:35;11.38;;;5.90;;
73816;SDS011;62146;53.232;-1.304;2023-02-13T04:13:55;8.35;;;5.65;;
73816;SDS011;62146;53.232;-1.304;2023-02-13T04:19:05;10.68;;;5.55;;
73816;SDS011;62146;53.232;-1.304;2023-02-13T04:21:33;10.85;;;5.65;;
73816;SDS011;62146;53.232;-1.304;2023-02-13T04:24:01;9.65;;;5.45;;
73816;SDS011;62146;53.232;-1.304;2023-02-13T04:26:32;9.05;;;5.07;;
73816;SDS011;62146;53.232;-1.304;2023-02-13T04:29:01;8.73;;;4.83;;
73816;SDS011;62146;53.232;-1.304;2023-02-13T04:31:28;9.77;;;5.53;;
73816;SDS011;62146;53.232;-1.304;2023-02-13T04:33:55;10.23;;;5.38;;
73816;SDS011;62146;53.232;-1.304;2023-02-13T04:36:21;9.60;;;4.93;;
73816;SDS011;62146;53.232;-1.304;2023-02-13T04:38:48;8.90;;;5.18;;
73816;SDS011;62146;53.232;-1.304;2023-02-13T04:41:15;9.97;;;5.70;;
73816;SDS011;62146;53.232;-1.304;2023-02-13T04:43:42;10.05;;;5.20;;
73816;SDS011;62146;53.232;-1.304;2023-02-13T04:46:09;9.60;;;5.10;;
73816;SDS011;62146;53.232;-1.304;2023-02-13T04:48:35;9.98;;;5.10;;
73816;SDS011;62146;53.232;-1.304;2023-02-13T04:51:04;8.98;;;5.10;;
73816;SDS011;62146;53.232;-1.304;2023-02-13T04:53:30;10.57;;;4.83;;
73816;SDS011;62146;53.232;-1.304;2023-02-13T04:55:57;10.27;;;4.70;;
73816;SDS011;62146;53.232;-1.304;2023-02-13T04:58:23;8.90;;;5.25;;
73816;SDS011;62146;53.232;-1.304;2023-02-13T05:00:50;10.70;;;5.50;;
73816;SDS011;62146;53.232;-1.304;2023-02-13T05:03:17;8.73;;;5.30;;
73816;SDS011;62146;53.232;-1.304;2023-02-13T05:05:43;10.17;;;5.60;;
73816;SDS011;62146;53.232;-1.304;2023-02-13T05:08:10;9.82;;;4.78;;
73816;SDS011;62146;53.232;-1.304;2023-02-13T05:10:37;10.95;;;5.50;;
73816;SDS011;62146;53.232;-1.304;2023-02-13T05:13:03;10.48;;;5.22;;
73816;SDS011;62146;53.232;-1.304;2023-02-13T05:15:30;10.95;;;5.57;;
73816;SDS011;62146;53.232;-1.304;2023-02-13T05:17:56;9.27;;;5.17;;
73816;SDS011;62146;53.232;-1.304;2023-02-13T05:20:23;9.25;;;4.82;;
73816;SDS011;62146;53.232;-1.304;2023-02-13T05:22:51;10.27;;;5.20;;
73816;SDS011;62146;53.232;-1.304;2023-02-13T05:25:38;10.73;;;4.85;;
73816;SDS011;62146;53.232;-1.304;2023-02-13T05:28:06;10.82;;;5.90;;
73816;SDS011;62146;53.232;-1.304;2023-02-13T05:30:52;10.33;;;5.20;;
73816;SDS011;62146;53.232;-1.304;2023-02-13T05:33:19;10.50;;;5.70;;
73816;SDS011;62146;53.232;-1.304;2023-02-13T05:35:45;10.65;;;5.10;;
73816;SDS011;62146;53.232;-1.304;2023-02-13T05:38:12;11.85;;;5.20;;
73816;SDS011;62146;53.232;-1.304;2023-02-13T05:40:38;10.43;;;5.50;;
73816;SDS011;62146;53.232;-1.304;2023-02-13T05:43:05;10.80;;;5.40;;
73816;SDS011;62146;53.232;-1.304;2023-02-13T05:45:31;11.23;;;5.43;;
73816;SDS011;62146;53.232;-1.304;2023-02-13T05:47:58;10.00;;;5.45;;
73816;SDS011;62146;53.232;-1.304;2023-02-13T05:50:25;12.43;;;5.70;;
73816;SDS011;62146;53.232;-1.304;2023-02-13T05:52:51;13.25;;;5.50;;
73816;SDS011;62146;53.232;-1.304;2023-02-13T05:55:18;11.53;;;5.60;;
73816;SDS011;62146;53.232;-1.304;2023-02-13T05:57:44;11.38;;;5.03;;
73816;SDS011;62146;53.232;-1.304;2023-02-13T06:00:11;10.70;;;5.57;;
73816;SDS011;62146;53.232;-1.304;2023-02-13T06:02:38;10.45;;;5.53;;
73816;SDS011;62146;53.232;-1.304;2023-02-13T06:05:04;11.82;;;5.68;;
73816;SDS011;62146;53.232;-1.304;2023-02-13T06:07:31;12.57;;;5.50;;
73816;SDS011;62146;53.232;-1.304;2023-02-13T06:09:58;12.65;;;5.70;;
73816;SDS011;62146;53.232;-1.304;2023-02-13T06:12:25;10.98;;;5.78;;
73816;SDS011;62146;53.232;-1.304;2023-02-13T06:14:51;13.35;;;5.90;;
73816;SDS011;62146;53.232;-1.304;2023-02-13T06:17:18;11.80;;;5.95;;
73816;SDS011;62146;53.232;-1.304;2023-02-13T06:19:44;12.70;;;5.97;;
73816;SDS011;62146;53.232;-1.304;2023-02-13T06:22:11;13.80;;;5.95;;
73816;SDS011;62146;53.232;-1.304;2023-02-13T06:24:37;12.05;;;6.00;;
73816;SDS011;62146;53.232;-1.304;2023-02-13T06:27:04;11.75;;;5.68;;
73816;SDS011;62146;53.232;-1.304;2023-02-13T06:29:30;11.68;;;6.22;;
73816;SDS011;62146;53.232;-1.304;2023-02-13T06:31:58;13.30;;;6.07;;
73816;SDS011;62146;53.232;-1.304;2023-02-13T06:34:24;13.40;;;6.50;;
73816;SDS011;62146;53.232;-1.304;2023-02-13T06:36:51;12.70;;;5.72;;
73816;SDS011;62146;53.232;-1.304;2023-02-13T06:39:18;13.18;;;6.72;;
73816;SDS011;62146;53.232;-1.304;2023-02-13T06:41:44;11.60;;;5.97;;
73816;SDS011;62146;53.232;-1.304;2023-02-13T06:44:11;14.70;;;6.40;;
73816;SDS011;62146;53.232;-1.304;2023-02-13T06:46:37;13.88;;;5.95;;
73816;SDS011;62146;53.232;-1.304;2023-02-13T06:49:04;15.63;;;7.00;;
73816;SDS011;62146;53.232;-1.304;2023-02-13T06:51:30;15.50;;;6.65;;
73816;SDS011;62146;53.232;-1.304;2023-02-13T06:53:57;14.20;;;6.93;;
73816;SDS011;62146;53.232;-1.304;2023-02-13T06:56:23;13.60;;;7.00;;
73816;SDS011;62146;53.232;-1.304;2023-02-13T06:58:51;15.60;;;7.22;;
73816;SDS011;62146;53.232;-1.304;2023-02-13T07:01:18;14.00;;;6.43;;
73816;SDS011;62146;53.232;-1.304;2023-02-13T07:03:44;12.88;;;6.57;;
73816;SDS011;62146;53.232;-1.304;2023-02-13T07:06:16;15.43;;;6.90;;
73816;SDS011;62146;53.232;-1.304;2023-02-13T07:08:46;15.47;;;6.73;;
73816;SDS011;62146;53.232;-1.304;2023-02-13T07:11:17;15.07;;;6.45;;
73816;SDS011;62146;53.232;-1.304;2023-02-13T07:13:44;13.25;;;6.53;;
73816;SDS011;62146;53.232;-1.304;2023-02-13T07:16:11;13.85;;;6.57;;
73816;SDS011;62146;53.232;-1.304;2023-02-13T07:18:38;12.60;;;6.55;;
73816;SDS011;62146;53.232;-1.304;2023-02-13T07:21:05;14.47;;;7.13;;
73816;SDS011;62146;53.232;-1.304;2023-02-13T07:23:32;15.77;;;7.30;;
73816;SDS011;62146;53.232;-1.304;2023-02-13T07:25:59;16.85;;;7.20;;
73816;SDS011;62146;53.232;-1.304;2023-02-13T07:28:27;15.10;;;6.47;;
73816;SDS011;62146;53.232;-1.304;2023-02-13T07:30:54;15.07;;;7.72;;
73816;SDS011;62146;53.232;-1.304;2023-02-13T07:33:21;13.57;;;6.63;;
73816;SDS011;62146;53.232;-1.304;2023-02-13T07:35:49;19.10;;;7.55;;
73816;SDS011;62146;53.232;-1.304;2023-02-13T07:38:17;14.18;;;7.00;;
73816;SDS011;62146;53.232;-1.304;2023-02-13T07:40:44;15.88;;;7.15;;
73816;SDS011;62146;53.232;-1.304;2023-02-13T07:43:11;15.98;;;6.88;;
73816;SDS011;62146;53.232;-1.304;2023-02-13T07:45:38;15.30;;;7.30;;
73816;SDS011;62146;53.232;-1.304;2023-02-13T07:48:04;15.55;;;7.15;;
73816;SDS011;62146;53.232;-1.304;2023-02-13T07:50:31;16.23;;;7.60;;
73816;SDS011;62146;53.232;-1.304;2023-02-13T07:52:59;17.65;;;8.40;;
73816;SDS011;62146;53.232;-1.304;2023-02-13T07:55:27;16.48;;;7.90;;
73816;SDS011;62146;53.232;-1.304;2023-02-13T07:57:55;18.07;;;7.77;;
73816;SDS011;62146;53.232;-1.304;2023-02-13T08:00:22;16.15;;;7.05;;
73816;SDS011;62146;53.232;-1.304;2023-02-13T08:02:48;17.00;;;8.00;;
73816;SDS011;62146;53.232;-1.304;2023-02-13T08:05:15;16.00;;;7.07;;
73816;SDS011;62146;53.232;-1.304;2023-02-13T08:07:41;16.27;;;7.80;;
73816;SDS011;62146;53.232;-1.304;2023-02-13T08:10:10;17.30;;;7.60;;
73816;SDS011;62146;53.232;-1.304;2023-02-13T08:12:57;19.50;;;7.90;;
73816;SDS011;62146;53.232;-1.304;2023-02-13T08:15:24;15.48;;;7.32;;
73816;SDS011;62146;53.232;-1.304;2023-02-13T08:17:51;18.20;;;8.05;;
73816;SDS011;62146;53.232;-1.304;2023-02-13T08:20:18;18.52;;;8.65;;
73816;SDS011;62146;53.232;-1.304;2023-02-13T08:22:44;17.93;;;8.03;;
73816;SDS011;62146;53.232;-1.304;2023-02-13T08:25:11;15.57;;;7.18;;
73816;SDS011;62146;53.232;-1.304;2023-02-13T08:27:38;16.00;;;7.75;;
73816;SDS011;62146;53.232;-1.304;2023-02-13T08:30:05;17.92;;;8.13;;
73816;SDS011;62146;53.232;-1.304;2023-02-13T08:32:32;17.65;;;8.18;;
73816;SDS011;62146;53.232;-1.304;2023-02-13T08:35:17;16.70;;;7.87;;
73816;SDS011;62146;53.232;-1.304;2023-02-13T08:37:43;15.88;;;8.05;;
73816;SDS011;62146;53.232;-1.304;2023-02-13T08:40:12;20.13;;;8.77;;
73816;SDS011;62146;53.232;-1.304;2023-02-13T08:42:40;18.08;;;8.13;;
73816;SDS011;62146;53.232;-1.304;2023-02-13T08:45:06;18.02;;;8.75;;
73816;SDS011;62146;53.232;-1.304;2023-02-13T08:47:36;20.07;;;9.13;;
73816;SDS011;62146;53.232;-1.304;2023-02-13T08:50:03;25.17;;;9.73;;
73816;SDS011;62146;53.232;-1.304;2023-02-13T08:52:30;19.98;;;9.57;;
73816;SDS011;62146;53.232;-1.304;2023-02-13T08:54:56;20.42;;;9.27;;
73816;SDS011;62146;53.232;-1.304;2023-02-13T08:57:23;21.08;;;9.07;;
73816;SDS011;62146;53.232;-1.304;2023-02-13T08:59:49;17.57;;;8.23;;
73816;SDS011;62146;53.232;-1.304;2023-02-13T09:02:16;17.77;;;8.68;;
73816;SDS011;62146;53.232;-1.304;2023-02-13T09:04:42;18.88;;;8.80;;
73816;SDS011;62146;53.232;-1.304;2023-02-13T09:07:09;19.30;;;8.93;;
73816;SDS011;62146;53.232;-1.304;2023-02-13T09:09:36;21.63;;;9.65;;
73816;SDS011;62146;53.232;-1.304;2023-02-13T09:12:02;21.30;;;9.70;;
73816;SDS011;62146;53.232;-1.304;2023-02-13T09:14:29;19.95;;;9.13;;
73816;SDS011;62146;53.232;-1.304;2023-02-13T09:16:55;16.15;;;8.18;;
73816;SDS011;62146;53.232;-1.304;2023-02-13T09:19:22;19.23;;;9.23;;
73816;SDS011;62146;53.232;-1.304;2023-02-13T09:21:49;19.42;;;8.68;;
73816;SDS011;62146;53.232;-1.304;2023-02-13T09:24:15;18.70;;;8.80;;
73816;SDS011;62146;53.232;-1.304;2023-02-13T09:26:42;21.48;;;9.40;;
73816;SDS011;62146;53.232;-1.304;2023-02-13T09:29:08;18.77;;;8.80;;
73816;SDS011;62146;53.232;-1.304;2023-02-13T09:31:37;21.55;;;10.25;;
73816;SDS011;62146;53.232;-1.304;2023-02-13T09:34:03;19.48;;;9.10;;
73816;SDS011;62146;53.232;-1.304;2023-02-13T09:36:30;19.53;;;9.40;;
73816;SDS011;62146;53.232;-1.304;2023-02-13T09:38:58;17.45;;;9.43;;
73816;SDS011;62146;53.232;-1.304;2023-02-13T09:41:30;20.88;;;9.15;;
73816;SDS011;62146;53.232;-1.304;2023-02-13T09:44:05;19.55;;;9.25;;
73816;SDS011;62146;53.232;-1.304;2023-02-13T09:47:22;20.73;;;9.13;;
73816;SDS011;62146;53.232;-1.304;2023-02-13T09:49:56;18.43;;;8.87;;
73816;SDS011;62146;53.232;-1.304;2023-02-13T09:52:31;17.83;;;9.02;;
73816;SDS011;62146;53.232;-1.304;2023-02-13T09:55:00;18.38;;;8.50;;
73816;SDS011;62146;53.232;-1.304;2023-02-13T09:57:40;18.27;;;8.65;;
73816;SDS011;62146;53.232;-1.304;2023-02-13T10:00:14;21.52;;;9.82;;
73816;SDS011;62146;53.232;-1.304;2023-02-13T10:10:43;17.52;;;9.18;;
73816;SDS011;62146;53.232;-1.304;2023-02-13T10:16:07;17.60;;;8.40;;
73816;SDS011;62146;53.232;-1.304;2023-02-13T10:21:21;19.15;;;9.05;;
73816;SDS011;62146;53.232;-1.304;2023-02-13T10:26:33;17.67;;;9.15;;
73816;SDS011;62146;53.232;-1.304;2023-02-13T10:32:11;20.35;;;9.48;;
73816;SDS011;62146;53.232;-1.304;2023-02-13T10:34:43;16.35;;;8.43;;
73816;SDS011;62146;53.232;-1.304;2023-02-13T10:37:12;18.60;;;8.90;;
73816;SDS011;62146;53.232;-1.304;2023-02-13T10:39:43;19.73;;;9.25;;
73816;SDS011;62146;53.232;-1.304;2023-02-13T11:02:13;18.02;;;8.48;;
73816;SDS011;62146;53.232;-1.304;2023-02-13T11:04:22;18.42;;;8.88;;
73816;SDS011;62146;53.232;-1.304;2023-02-13T11:06:56;18.45;;;8.82;;
73816;SDS011;62146;53.232;-1.304;2023-02-13T11:09:25;20.00;;;10.23;;
73816;SDS011;62146;53.232;-1.304;2023-02-13T11:11:52;17.70;;;9.15;;
73816;SDS011;62146;53.232;-1.304;2023-02-13T11:14:21;19.50;;;9.02;;
73816;SDS011;62146;53.232;-1.304;2023-02-13T11:19:46;18.92;;;9.40;;
73816;SDS011;62146;53.232;-1.304;2023-02-13T11:22:15;18.93;;;9.67;;
73816;SDS011;62146;53.232;-1.304;2023-02-13T11:25:01;21.60;;;9.55;;
73816;SDS011;62146;53.232;-1.304;2023-02-13T11:27:32;21.30;;;9.90;;
73816;SDS011;62146;53.232;-1.304;2023-02-13T11:30:06;18.58;;;8.98;;
73816;SDS011;62146;53.232;-1.304;2023-02-13T11:33:03;17.27;;;9.05;;
73816;SDS011;62146;53.232;-1.304;2023-02-13T11:35:44;20.13;;;9.87;;
73816;SDS011;62146;53.232;-1.304;2023-02-13T11:40:42;20.10;;;10.23;;
73816;SDS011;62146;53.232;-1.304;2023-02-13T11:43:16;20.73;;;9.60;;
73816;SDS011;62146;53.232;-1.304;2023-02-13T11:46:00;19.17;;;9.60;;
73816;SDS011;62146;53.232;-1.304;2023-02-13T11:48:32;20.27;;;9.80;;
73816;SDS011;62146;53.232;-1.304;2023-02-13T11:51:01;20.20;;;10.07;;
73816;SDS011;62146;53.232;-1.304;2023-02-13T11:53:29;19.98;;;9.77;;
73816;SDS011;62146;53.232;-1.304;2023-02-13T11:56:02;20.52;;;9.98;;
73816;SDS011;62146;53.232;-1.304;2023-02-13T11:58:32;19.20;;;9.93;;
73816;SDS011;62146;53.232;-1.304;2023-02-13T12:01:07;20.10;;;9.57;;
73816;SDS011;62146;53.232;-1.304;2023-02-13T12:03:36;20.95;;;10.15;;
73816;SDS011;62146;53.232;-1.304;2023-02-13T12:06:05;18.92;;;9.40;;
73816;SDS011;62146;53.232;-1.304;2023-02-13T12:08:33;18.08;;;9.38;;
73816;SDS011;62146;53.232;-1.304;2023-02-13T12:11:03;19.98;;;10.27;;
73816;SDS011;62146;53.232;-1.304;2023-02-13T12:13:43;19.47;;;9.97;;
73816;SDS011;62146;53.232;-1.304;2023-02-13T12:16:13;22.88;;;10.25;;
73816;SDS011;62146;53.232;-1.304;2023-02-13T12:18:59;20.77;;;10.35;;
73816;SDS011;62146;53.232;-1.304;2023-02-13T12:32:54;25.58;;;11.95;;
73816;SDS011;62146;53.232;-1.304;2023-02-13T12:41:19;25.17;;;11.10;;
73816;SDS011;62146;53.232;-1.304;2023-02-13T12:54:58;30.47;;;12.90;;
73816;SDS011;62146;53.232;-1.304;2023-02-13T13:00:16;24.23;;;12.80;;
73816;SDS011;62146;53.232;-1.304;2023-02-13T13:06:21;21.75;;;12.73;;
73816;SDS011;62146;53.232;-1.304;2023-02-13T13:17:02;24.65;;;13.93;;
73816;SDS011;62146;53.232;-1.304;2023-02-13T13:22:32;24.90;;;13.77;;
73816;SDS011;62146;53.232;-1.304;2023-02-13T13:27:35;25.55;;;14.48;;
73816;SDS011;62146;53.232;-1.304;2023-02-13T13:30:15;27.35;;;14.95;;
73816;SDS011;62146;53.232;-1.304;2023-02-13T13:32:47;24.00;;;13.95;;
73816;SDS011;62146;53.232;-1.304;2023-02-13T13:35:19;24.40;;;14.50;;
73816;SDS011;62146;53.232;-1.304;2023-02-13T13:37:55;25.02;;;14.38;;
73816;SDS011;62146;53.232;-1.304;2023-02-13T13:43:02;25.30;;;14.73;;
73816;SDS011;62146;53.232;-1.304;2023-02-13T13:45:42;26.58;;;14.75;;
73816;SDS011;62146;53.232;-1.304;2023-02-13T13:51:17;25.35;;;15.15;;
73816;SDS011;62146;53.232;-1.304;2023-02-13T14:02:46;25.17;;;15.23;;
73816;SDS011;62146;53.232;-1.304;2023-02-13T14:07:59;24.75;;;14.70;;
73816;SDS011;62146;53.232;-1.304;2023-02-13T14:16:11;24.93;;;14.30;;
73816;SDS011;62146;53.232;-1.304;2023-02-13T14:18:57;22.98;;;14.00;;
73816;SDS011;62146;53.232;-1.304;2023-02-13T14:21:24;21.92;;;13.25;;
73816;SDS011;62146;53.232;-1.304;2023-02-13T14:23:51;21.38;;;12.73;;
73816;SDS011;62146;53.232;-1.304;2023-02-13T14:26:23;22.60;;;13.63;;
73816;SDS011;62146;53.232;-1.304;2023-02-13T14:31:39;20.10;;;11.23;;
73816;SDS011;62146;53.232;-1.304;2023-02-13T14:36:45;21.77;;;12.07;;
73816;SDS011;62146;53.232;-1.304;2023-02-13T14:39:29;19.33;;;11.45;;
73816;SDS011;62146;53.232;-1.304;2023-02-13T14:41:58;19.57;;;11.70;;
73816;SDS011;62146;53.232;-1.304;2023-02-13T14:44:37;19.50;;;11.23;;
73816;SDS011;62146;53.232;-1.304;2023-02-13T14:47:21;20.20;;;11.35;;
73816;SDS011;62146;53.232;-1.304;2023-02-13T14:50:00;20.63;;;12.32;;
73816;SDS011;62146;53.232;-1.304;2023-02-13T14:52:32;20.90;;;11.60;;
73816;SDS011;62146;53.232;-1.304;2023-02-13T14:55:06;20.97;;;11.43;;
73816;SDS011;62146;53.232;-1.304;2023-02-13T14:57:43;21.83;;;11.82;;
73816;SDS011;62146;53.232;-1.304;2023-02-13T15:02:54;21.23;;;11.65;;
73816;SDS011;62146;53.232;-1.304;2023-02-13T15:05:26;20.80;;;11.52;;
73816;SDS011;62146;53.232;-1.304;2023-02-13T15:08:04;22.37;;;11.70;;
73816;SDS011;62146;53.232;-1.304;2023-02-13T15:10:44;20.30;;;10.30;;
73816;SDS011;62146;53.232;-1.304;2023-02-13T15:13:14;20.38;;;10.88;;
73816;SDS011;62146;53.232;-1.304;2023-02-13T15:15:43;21.33;;;10.93;;
73816;SDS011;62146;53.232;-1.304;2023-02-13T15:18:18;18.65;;;10.63;;
73816;SDS011;62146;53.232;-1.304;2023-02-13T15:20:47;18.40;;;10.37;;
73816;SDS011;62146;53.232;-1.304;2023-02-13T15:23:18;20.08;;;10.73;;
73816;SDS011;62146;53.232;-1.304;2023-02-13T15:25:47;20.27;;;10.10;;
73816;SDS011;62146;53.232;-1.304;2023-02-13T15:28:20;19.50;;;10.45;;
73816;SDS011;62146;53.232;-1.304;2023-02-13T15:30:56;20.10;;;9.95;;
73816;SDS011;62146;53.232;-1.304;2023-02-13T15:33:31;19.93;;;9.93;;
73816;SDS011;62146;53.232;-1.304;2023-02-13T15:36:16;19.10;;;10.23;;
73816;SDS011;62146;53.232;-1.304;2023-02-13T15:38:44;18.42;;;10.23;;
73816;SDS011;62146;53.232;-1.304;2023-02-13T15:41:12;17.73;;;10.30;;
73816;SDS011;62146;53.232;-1.304;2023-02-13T15:43:46;22.23;;;11.75;;
73816;SDS011;62146;53.232;-1.304;2023-02-13T15:48:44;23.45;;;10.95;;
73816;SDS011;62146;53.232;-1.304;2023-02-13T15:51:21;19.00;;;10.60;;
73816;SDS011;62146;53.232;-1.304;2023-02-13T15:53:51;19.42;;;10.30;;
73816;SDS011;62146;53.232;-1.304;2023-02-13T15:56:19;21.67;;;11.13;;
73816;SDS011;62146;53.232;-1.304;2023-02-13T15:58:46;21.00;;;10.73;;
73816;SDS011;62146;53.232;-1.304;2023-02-13T16:01:13;18.63;;;10.27;;
73816;SDS011;62146;53.232;-1.304;2023-02-13T16:03:42;20.27;;;11.07;;
73816;SDS011;62146;53.232;-1.304;2023-02-13T16:06:14;20.15;;;10.75;;
73816;SDS011;62146;53.232;-1.304;2023-02-13T16:08:53;21.23;;;10.20;;
73816;SDS011;62146;53.232;-1.304;2023-02-13T16:11:28;20.47;;;10.60;;
73816;SDS011;62146;53.232;-1.304;2023-02-13T16:16:35;21.65;;;10.65;;
73816;SDS011;62146;53.232;-1.304;2023-02-13T16:21:55;22.67;;;11.55;;
73816;SDS011;62146;53.232;-1.304;2023-02-13T16:24:23;21.73;;;10.97;;
73816;SDS011;62146;53.232;-1.304;2023-02-13T16:26:51;24.52;;;11.52;;
73816;SDS011;62146;53.232;-1.304;2023-02-13T16:29:22;22.48;;;11.15;;
73816;SDS011;62146;53.232;-1.304;2023-02-13T16:31:52;22.33;;;10.50;;
73816;SDS011;62146;53.232;-1.304;2023-02-13T16:34:28;21.50;;;11.05;;
73816;SDS011;62146;53.232;-1.304;2023-02-13T16:36:55;24.30;;;11.87;;
73816;SDS011;62146;53.232;-1.304;2023-02-13T16:39:26;21.52;;;11.50;;
73816;SDS011;62146;53.232;-1.304;2023-02-13T16:41:55;22.20;;;10.93;;
73816;SDS011;62146;53.232;-1.304;2023-02-13T16:44:25;23.13;;;11.10;;
73816;SDS011;62146;53.232;-1.304;2023-02-13T16:46:52;20.27;;;11.02;;
73816;SDS011;62146;53.232;-1.304;2023-02-13T16:49:23;22.27;;;11.07;;
73816;SDS011;62146;53.232;-1.304;2023-02-13T16:52:10;22.38;;;11.43;;
73816;SDS011;62146;53.232;-1.304;2023-02-13T16:54:56;21.15;;;10.98;;
73816;SDS011;62146;53.232;-1.304;2023-02-13T16:57:29;24.13;;;11.10;;
73816;SDS011;62146;53.232;-1.304;2023-02-13T17:00:05;22.17;;;11.52;;
73816;SDS011;62146;53.232;-1.304;2023-02-13T17:02:44;22.93;;;10.97;;
73816;SDS011;62146;53.232;-1.304;2023-02-13T17:05:15;21.63;;;11.20;;
73816;SDS011;62146;53.232;-1.304;2023-02-13T17:07:46;25.25;;;11.98;;
73816;SDS011;62146;53.232;-1.304;2023-02-13T17:12:43;27.23;;;12.25;;
73816;SDS011;62146;53.232;-1.304;2023-02-13T17:15:11;24.23;;;11.93;;
73816;SDS011;62146;53.232;-1.304;2023-02-13T17:17:40;26.98;;;12.65;;
73816;SDS011;62146;53.232;-1.304;2023-02-13T17:20:07;25.05;;;11.60;;
73816;SDS011;62146;53.232;-1.304;2023-02-13T17:22:39;26.67;;;12.65;;
73816;SDS011;62146;53.232;-1.304;2023-02-13T17:25:13;28.13;;;11.55;;
73816;SDS011;62146;53.232;-1.304;2023-02-13T17:27:43;27.43;;;12.77;;
73816;SDS011;62146;53.232;-1.304;2023-02-13T17:30:13;28.52;;;12.93;;
73816;SDS011;62146;53.232;-1.304;2023-02-13T17:32:45;26.80;;;12.88;;
73816;SDS011;62146;53.232;-1.304;2023-02-13T17:35:13;30.83;;;12.82;;
73816;SDS011;62146;53.232;-1.304;2023-02-13T17:37:41;27.38;;;12.82;;
73816;SDS011;62146;53.232;-1.304;2023-02-13T17:40:14;27.73;;;12.57;;
73816;SDS011;62146;53.232;-1.304;2023-02-13T17:42:46;27.17;;;13.05;;
73816;SDS011;62146;53.232;-1.304;2023-02-13T17:45:21;25.52;;;12.35;;
73816;SDS011;62146;53.232;-1.304;2023-02-13T17:47:50;27.05;;;13.32;;
73816;SDS011;62146;53.232;-1.304;2023-02-13T17:50:16;32.50;;;13.77;;
73816;SDS011;62146;53.232;-1.304;2023-02-13T17:52:44;29.40;;;14.03;;